createdAt,value
2023-05-10T00:02:01.005Z,12.10
2023-05-10T00:04:28.488Z,12.11
2023-05-10T00:06:55.858Z,12.12
2023-05-10T00:09:22.497Z,12.12
2023-05-10T00:11:49.163Z,12.12
2023-05-10T00:14:15.765Z,12.13
2023-05-10T00:16:42.442Z,12.16
2023-05-10T00:19:09.204Z,12.16
2023-05-10T00:21:35.789Z,12.20
2023-05-10T00:24:02.393Z,12.20
2023-05-10T00:26:29.218Z,12.22
2023-05-10T00:28:55.901Z,12.25
2023-05-10T00:31:22.537Z,12.26
2023-05-10T00:33:49.120Z,12.29
2023-05-10T00:36:15.909Z,12.31
2023-05-10T00:38:42.584Z,12.32
2023-05-10T00:41:09.678Z,12.33
2023-05-10T00:43:36.835Z,12.31
2023-05-10T00:46:03.963Z,12.30
2023-05-10T00:48:30.911Z,12.30
2023-05-10T00:50:58.736Z,12.32
2023-05-10T00:53:25.721Z,12.28
2023-05-10T00:55:52.548Z,12.28
2023-05-10T00:58:19.315Z,12.28
2023-05-10T01:00:48.510Z,12.26
2023-05-10T01:03:16.427Z,12.23
2023-05-10T01:05:43.094Z,12.25
2023-05-10T01:08:09.896Z,12.25
2023-05-10T01:10:36.886Z,12.21
2023-05-10T01:13:04.202Z,12.21
2023-05-10T01:15:32.118Z,12.24
2023-05-10T01:17:59.313Z,12.25
2023-05-10T01:20:29.408Z,12.23
2023-05-10T01:23:36.982Z,12.25
2023-05-10T01:26:30.660Z,12.21
2023-05-10T01:29:00.763Z,12.22
2023-05-10T01:31:52.164Z,12.21
2023-05-10T01:34:24.810Z,12.20
2023-05-10T01:36:59.712Z,12.20
2023-05-10T01:39:37.779Z,12.19
2023-05-10T01:42:21.082Z,12.20
2023-05-10T01:44:52.851Z,12.16
2023-05-10T01:47:44.233Z,12.15
2023-05-10T01:50:20.943Z,12.12
2023-05-10T01:52:56.644Z,12.10
2023-05-10T01:55:27.095Z,12.08
2023-05-10T01:58:03.900Z,12.08
2023-05-10T02:00:32.346Z,12.05
2023-05-10T02:03:01.195Z,12.02
2023-05-10T02:05:30.206Z,12.02
2023-05-10T02:07:59.896Z,11.98
2023-05-10T02:10:27.415Z,11.98
2023-05-10T02:12:59.421Z,11.98
2023-05-10T02:15:28.604Z,11.99
2023-05-10T02:17:56.926Z,11.98
2023-05-10T02:20:25.434Z,11.98
2023-05-10T02:22:55.321Z,11.97
2023-05-10T02:25:24.389Z,11.93
2023-05-10T02:27:53.001Z,11.91
2023-05-10T02:30:20.281Z,11.93
2023-05-10T02:32:49.142Z,11.94
2023-05-10T02:35:16.623Z,11.95
2023-05-10T02:37:44.875Z,11.97
2023-05-10T02:40:12.593Z,11.96
2023-05-10T02:42:43.174Z,11.96
2023-05-10T02:45:14.182Z,11.96
2023-05-10T02:47:41.012Z,11.93
2023-05-10T02:50:08.505Z,11.92
2023-05-10T02:52:43.478Z,11.91
2023-05-10T02:55:12.779Z,11.89
2023-05-10T02:57:44.205Z,11.89
2023-05-10T03:00:11.433Z,11.89
2023-05-10T03:02:38.168Z,11.86
2023-05-10T03:05:07.237Z,11.85
2023-05-10T03:07:34.476Z,11.83
2023-05-10T03:10:01.662Z,11.81
2023-05-10T03:12:41.730Z,11.79
2023-05-10T03:15:17.144Z,11.76
2023-05-10T03:17:57.258Z,11.74
2023-05-10T03:20:32.527Z,11.73
2023-05-10T03:23:36.255Z,11.70
2023-05-10T03:26:05.924Z,11.71
2023-05-10T03:28:35.043Z,11.72
2023-05-10T03:31:03.621Z,11.71
2023-05-10T03:33:30.436Z,11.74
2023-05-10T03:35:57.126Z,11.74
2023-05-10T03:38:23.816Z,11.72
2023-05-10T03:40:54.016Z,11.66
2023-05-10T03:43:20.644Z,11.63
2023-05-10T03:45:47.882Z,11.63
2023-05-10T03:48:14.826Z,11.58
2023-05-10T03:50:41.538Z,11.59
2023-05-10T03:53:08.146Z,11.58
2023-05-10T03:55:37.129Z,11.56
2023-05-10T03:58:03.860Z,11.54
2023-05-10T04:00:31.190Z,11.51
2023-05-10T04:02:58.065Z,11.48
2023-05-10T04:05:25.062Z,11.48
2023-05-10T04:07:52.197Z,11.46
2023-05-10T04:10:22.299Z,11.49
2023-05-10T04:12:48.995Z,11.50
2023-05-10T04:15:15.879Z,11.45
2023-05-10T04:17:42.574Z,11.46
2023-05-10T04:20:09.818Z,11.46
2023-05-10T04:22:36.458Z,11.46
2023-05-10T04:25:03.184Z,11.45
2023-05-10T04:27:29.807Z,11.42
2023-05-10T04:29:56.440Z,11.39
2023-05-10T04:32:23.184Z,11.36
2023-05-10T04:34:51.818Z,11.33
2023-05-10T04:37:18.863Z,11.32
2023-05-10T04:39:45.506Z,11.33
2023-05-10T04:42:13.289Z,11.34
2023-05-10T04:44:39.995Z,11.37
2023-05-10T04:47:06.664Z,11.38
2023-05-10T04:49:33.493Z,11.37
2023-05-10T04:52:00.202Z,11.36
2023-05-10T04:54:26.867Z,11.32
2023-05-10T04:56:53.535Z,11.32
2023-05-10T04:59:20.143Z,11.31
2023-05-10T05:01:46.949Z,11.28
2023-05-10T05:04:13.615Z,11.26
2023-05-10T05:06:40.247Z,11.22
2023-05-10T05:09:06.906Z,11.22
2023-05-10T05:11:33.561Z,11.19
2023-05-10T05:14:00.621Z,11.18
2023-05-10T05:16:28.203Z,11.22
2023-05-10T05:18:54.912Z,11.23
2023-05-10T05:21:22.436Z,11.26
2023-05-10T05:23:49.192Z,11.23
2023-05-10T05:26:16.218Z,11.25
2023-05-10T05:28:43.198Z,11.27
2023-05-10T05:31:10.297Z,11.31
2023-05-10T05:33:37.647Z,11.33
2023-05-10T05:36:05.964Z,11.34
2023-05-10T05:38:33.006Z,11.36
2023-05-10T05:40:59.638Z,11.38
2023-05-10T05:43:26.365Z,11.38
2023-05-10T05:45:54.940Z,11.38
2023-05-10T05:48:21.913Z,11.36
2023-05-10T05:50:48.601Z,11.35
2023-05-10T05:53:15.469Z,11.34
2023-05-10T05:55:51.526Z,11.36
2023-05-10T05:58:18.168Z,11.40
2023-05-10T06:00:44.846Z,11.42
2023-05-10T06:03:11.702Z,11.48
2023-05-10T06:05:38.682Z,11.61
2023-05-10T06:08:05.459Z,11.76
2023-05-10T06:10:32.089Z,11.89
2023-05-10T06:12:58.839Z,11.99
2023-05-10T06:15:25.709Z,12.09
2023-05-10T06:17:52.384Z,12.17
2023-05-10T06:20:19.157Z,12.27
2023-05-10T06:22:45.870Z,12.27
2023-05-10T06:25:12.707Z,12.23
2023-05-10T06:27:39.297Z,12.20
2023-05-10T06:30:12.833Z,12.20
2023-05-10T06:32:39.907Z,12.26
2023-05-10T06:35:07.257Z,12.20
2023-05-10T06:37:34.219Z,12.15
2023-05-10T06:40:01.575Z,12.11
2023-05-10T06:42:28.416Z,12.15
2023-05-10T06:44:55.052Z,12.18
2023-05-10T06:47:21.800Z,12.21
2023-05-10T06:49:48.437Z,12.21
2023-05-10T06:52:15.076Z,12.25
2023-05-10T06:54:41.818Z,12.28
2023-05-10T06:57:16.054Z,12.33
2023-05-10T06:59:46.422Z,12.33
2023-05-10T07:02:13.499Z,12.34
2023-05-10T07:04:40.500Z,12.33
2023-05-10T07:07:07.234Z,12.37
2023-05-10T07:09:33.935Z,12.34
2023-05-10T07:12:00.741Z,12.32
2023-05-10T07:14:27.500Z,12.28
2023-05-10T07:16:54.384Z,12.23
2023-05-10T07:19:21.227Z,12.22
2023-05-10T07:21:48.544Z,12.21
2023-05-10T07:24:15.446Z,12.25
2023-05-10T07:26:42.090Z,12.33
2023-05-10T07:29:08.830Z,12.42
2023-05-10T07:31:35.473Z,12.45
2023-05-10T07:34:02.268Z,12.51
2023-05-10T07:36:28.926Z,12.55
2023-05-10T07:38:55.628Z,12.51
2023-05-10T07:41:23.494Z,12.49
2023-05-10T07:43:50.234Z,12.57
2023-05-10T07:46:17.797Z,12.74
2023-05-10T07:48:44.454Z,12.95
2023-05-10T07:51:11.684Z,13.08
2023-05-10T07:53:39.128Z,13.12
2023-05-10T07:56:33.270Z,13.16
2023-05-10T07:59:00.681Z,13.15
2023-05-10T08:01:33.241Z,13.10
2023-05-10T08:04:00.101Z,12.97
2023-05-10T08:06:31.056Z,12.91
2023-05-10T08:08:58.118Z,12.96
2023-05-10T08:11:26.281Z,13.03
2023-05-10T08:13:53.278Z,13.06
2023-05-10T08:16:20.571Z,13.10
2023-05-10T08:18:48.588Z,13.15
2023-05-10T08:21:15.931Z,13.29
2023-05-10T08:23:44.731Z,13.37
2023-05-10T08:26:11.827Z,13.52
2023-05-10T08:28:38.704Z,13.91
2023-05-10T08:31:05.991Z,14.26
2023-05-10T08:33:34.116Z,14.28
2023-05-10T08:36:00.868Z,14.16
2023-05-10T08:38:27.591Z,13.96
2023-05-10T08:40:59.735Z,13.75
2023-05-10T08:43:31.550Z,13.69
2023-05-10T08:46:01.630Z,13.69
2023-05-10T08:48:31.340Z,13.71
2023-05-10T08:51:00.161Z,13.73
2023-05-10T08:53:28.353Z,13.77
2023-05-10T08:55:56.687Z,13.84
2023-05-10T08:58:24.577Z,13.86
2023-05-10T09:00:54.639Z,13.81
2023-05-10T09:03:22.432Z,13.75
2023-05-10T09:05:50.627Z,13.79
2023-05-10T09:08:18.499Z,14.18
2023-05-10T09:10:48.116Z,14.62
2023-05-10T09:13:16.352Z,14.76
2023-05-10T09:15:44.459Z,14.89
2023-05-10T09:18:12.026Z,15.02
2023-05-10T09:20:38.880Z,14.91
2023-05-10T09:23:06.296Z,14.66
2023-05-10T09:25:36.069Z,14.33
2023-05-10T09:28:03.363Z,14.08
2023-05-10T09:30:32.277Z,14.21
2023-05-10T09:33:00.539Z,14.57
2023-05-10T09:35:30.156Z,15.08
2023-05-10T09:38:00.576Z,15.84
2023-05-10T09:40:28.899Z,16.13
2023-05-10T09:42:59.497Z,16.09
2023-05-10T09:45:28.387Z,15.94
2023-05-10T09:47:57.587Z,15.61
2023-05-10T09:50:24.908Z,15.30
2023-05-10T09:53:00.143Z,15.00
2023-05-10T09:55:27.702Z,14.72
2023-05-10T09:58:02.919Z,14.51
2023-05-10T10:00:35.808Z,14.47
2023-05-10T10:03:03.138Z,14.88
2023-05-10T10:05:33.852Z,15.48
2023-05-10T10:08:03.572Z,15.88
2023-05-10T10:10:30.499Z,15.92
2023-05-10T10:12:57.201Z,15.76
2023-05-10T10:15:24.782Z,15.62
2023-05-10T10:17:53.898Z,15.58
2023-05-10T10:20:22.059Z,15.60
2023-05-10T10:22:49.395Z,15.59
2023-05-10T10:25:18.511Z,15.49
2023-05-10T10:27:54.587Z,15.71
2023-05-10T10:30:28.483Z,15.95
2023-05-10T10:33:10.432Z,16.50
2023-05-10T10:35:47.564Z,16.90
2023-05-10T10:38:14.969Z,17.14
2023-05-10T10:40:41.736Z,17.03
2023-05-10T10:43:26.649Z,17.10
2023-05-10T10:46:15.407Z,17.40
2023-05-10T10:49:09.994Z,17.70
2023-05-10T10:51:40.614Z,17.91
2023-05-10T10:54:11.509Z,17.69
2023-05-10T10:56:38.474Z,17.41
2023-05-10T10:59:05.287Z,17.26
2023-05-10T11:01:36.493Z,16.99
2023-05-10T11:04:06.399Z,16.60
2023-05-10T11:06:35.274Z,16.36
2023-05-10T11:09:08.815Z,16.48
2023-05-10T11:11:36.518Z,16.77
2023-05-10T11:14:07.931Z,16.93
2023-05-10T11:16:45.232Z,17.00
2023-05-10T11:19:17.501Z,17.11
2023-05-10T11:21:49.681Z,17.13
2023-05-10T11:24:29.142Z,17.03
2023-05-10T11:26:56.059Z,16.95
2023-05-10T11:29:23.330Z,16.82
2023-05-10T11:31:51.124Z,16.70
2023-05-10T11:34:32.245Z,16.63
2023-05-10T11:36:59.342Z,16.34
2023-05-10T11:39:31.008Z,16.17
2023-05-10T11:41:58.549Z,15.94
2023-05-10T11:44:31.142Z,15.77
2023-05-10T11:47:01.088Z,15.67
2023-05-10T11:49:27.843Z,15.73
2023-05-10T11:51:54.529Z,16.01
2023-05-10T11:54:21.221Z,16.30
2023-05-10T11:56:47.888Z,16.48
2023-05-10T11:59:16.045Z,16.54
2023-05-10T12:01:42.842Z,16.47
2023-05-10T12:04:09.925Z,16.30
2023-05-10T12:06:42.187Z,16.02
2023-05-10T12:09:09.318Z,15.89
2023-05-10T12:11:42.527Z,15.77
2023-05-10T12:14:11.660Z,15.60
2023-05-10T12:16:38.370Z,15.60
2023-05-10T12:19:05.176Z,15.56
2023-05-10T12:21:32.355Z,15.64
2023-05-10T12:24:06.357Z,15.73
2023-05-10T12:26:36.339Z,15.88
2023-05-10T12:29:20.082Z,15.98
2023-05-10T12:31:55.545Z,15.89
2023-05-10T12:34:31.821Z,15.90
2023-05-10T12:36:59.558Z,15.84
2023-05-10T12:39:26.305Z,15.63
2023-05-10T12:41:53.705Z,15.45
2023-05-10T12:44:20.599Z,15.27
2023-05-10T12:46:47.271Z,15.13
2023-05-10T12:49:13.978Z,15.01
2023-05-10T12:51:40.852Z,14.93
2023-05-10T12:54:07.587Z,14.88
2023-05-10T12:56:34.218Z,14.90
2023-05-10T12:59:01.046Z,15.03
2023-05-10T13:01:27.961Z,15.27
2023-05-10T13:03:54.726Z,15.49
2023-05-10T13:06:21.537Z,15.79
2023-05-10T13:08:48.196Z,16.05
2023-05-10T13:11:17.633Z,16.24
2023-05-10T13:13:44.341Z,16.35
2023-05-10T13:16:11.087Z,16.29
2023-05-10T13:18:37.774Z,16.29
2023-05-10T13:21:06.391Z,16.22
2023-05-10T13:23:33.079Z,16.28
2023-05-10T13:25:59.772Z,16.32
2023-05-10T13:28:27.406Z,16.25
2023-05-10T13:30:54.081Z,16.20
2023-05-10T13:33:20.725Z,16.20
2023-05-10T13:35:47.407Z,16.25
2023-05-10T13:38:14.881Z,16.35
2023-05-10T13:40:41.631Z,16.54
2023-05-10T13:43:08.342Z,16.65
2023-05-10T13:45:35.012Z,16.84
2023-05-10T13:48:01.634Z,16.94
2023-05-10T13:50:28.317Z,17.00
2023-05-10T13:52:54.988Z,16.98
2023-05-10T13:55:21.651Z,17.04
2023-05-10T13:57:48.633Z,17.39
2023-05-10T14:00:16.180Z,17.72
2023-05-10T14:02:42.947Z,17.80
2023-05-10T14:05:09.828Z,17.76
2023-05-10T14:07:36.452Z,17.71
2023-05-10T14:10:03.864Z,17.80
2023-05-10T14:12:30.708Z,17.79
2023-05-10T14:14:59.091Z,17.52
2023-05-10T14:17:25.790Z,17.30
2023-05-10T14:19:53.933Z,17.29
2023-05-10T14:22:21.629Z,17.53
2023-05-10T14:24:48.404Z,17.86
2023-05-10T14:27:15.163Z,18.06
2023-05-10T14:29:41.846Z,18.01
2023-05-10T14:32:10.149Z,17.90
2023-05-10T14:34:36.953Z,17.96
2023-05-10T14:37:03.648Z,18.13
2023-05-10T14:39:31.195Z,18.17
2023-05-10T14:41:57.891Z,18.21
2023-05-10T14:44:26.039Z,18.32
2023-05-10T14:46:52.879Z,18.48
2023-05-10T14:49:19.534Z,18.38
2023-05-10T14:51:46.651Z,18.27
2023-05-10T14:54:13.295Z,18.56
2023-05-10T14:56:39.942Z,18.92
2023-05-10T14:59:06.560Z,19.00
2023-05-10T15:01:36.513Z,18.77
2023-05-10T15:04:03.918Z,18.52
2023-05-10T15:06:35.551Z,18.66
2023-05-10T15:09:04.483Z,19.11
2023-05-10T15:11:31.252Z,19.49
2023-05-10T15:13:57.884Z,19.63
2023-05-10T15:16:24.797Z,19.48
2023-05-10T15:18:51.781Z,18.91
2023-05-10T15:21:18.463Z,18.40
2023-05-10T15:23:45.324Z,17.86
2023-05-10T15:26:11.962Z,17.49
2023-05-10T15:28:38.588Z,17.18
2023-05-10T15:31:05.328Z,16.91
2023-05-10T15:33:31.956Z,16.91
2023-05-10T15:35:58.572Z,17.20
2023-05-10T15:38:25.268Z,17.48
2023-05-10T15:57:11.815Z,18.10
2023-05-10T15:59:58.796Z,18.42
2023-05-10T16:07:33.949Z,18.37
2023-05-10T16:15:27.977Z,18.92
2023-05-10T16:22:17.125Z,18.79
2023-05-10T16:25:05.654Z,18.74
2023-05-10T16:27:52.575Z,18.94
2023-05-10T16:30:39.595Z,19.09
2023-05-10T16:33:06.345Z,19.04
2023-05-10T16:36:17.925Z,18.66
2023-05-10T16:39:30.115Z,18.22
2023-05-10T16:50:18.631Z,17.43
2023-05-10T16:56:46.764Z,17.31
2023-05-10T17:03:49.418Z,18.04
2023-05-10T17:06:37.780Z,17.82
2023-05-10T17:13:40.939Z,17.31
2023-05-10T17:16:21.379Z,17.21
2023-05-10T17:19:15.505Z,16.99
2023-05-10T17:22:03.934Z,16.74
2023-05-10T17:24:33.329Z,16.65
2023-05-10T17:27:00.823Z,16.55
2023-05-10T17:29:28.826Z,16.53
2023-05-10T17:31:58.632Z,16.56
2023-05-10T17:43:12.839Z,16.65
2023-05-10T17:46:00.219Z,16.75
2023-05-10T17:52:49.992Z,16.85
2023-05-10T17:58:57.107Z,16.75
2023-05-10T18:01:24.742Z,16.76
2023-05-10T18:04:46.069Z,16.76
2023-05-10T18:07:12.872Z,16.62
2023-05-10T18:26:18.953Z,14.97
2023-05-10T18:37:43.383Z,14.30
2023-05-10T18:40:30.386Z,14.34
2023-05-10T18:44:23.288Z,14.28
2023-05-10T18:51:48.035Z,14.15
2023-05-10T18:54:15.459Z,14.13
2023-05-10T18:56:45.561Z,14.18
2023-05-10T18:59:13.061Z,14.21
2023-05-10T19:01:41.982Z,14.20
2023-05-10T19:04:09.088Z,14.26
2023-05-10T19:06:36.564Z,14.27
2023-05-10T19:12:54.969Z,14.24
2023-05-10T19:20:12.088Z,14.25
2023-05-10T19:24:00.538Z,14.25
2023-05-10T19:27:32.577Z,14.16
2023-05-10T19:30:01.723Z,14.06
2023-05-10T19:32:29.111Z,13.99
2023-05-10T19:34:58.677Z,13.92
2023-05-10T19:41:06.361Z,13.90
2023-05-10T19:43:34.605Z,13.85
2023-05-10T19:58:18.304Z,13.68
2023-05-10T20:04:33.976Z,13.37
2023-05-10T20:07:02.588Z,13.28
2023-05-10T20:09:30.244Z,13.22
2023-05-10T20:12:27.916Z,13.13
2023-05-10T20:22:26.427Z,12.94
2023-05-10T20:24:56.340Z,12.95
2023-05-10T20:40:04.732Z,12.87
2023-05-10T20:42:33.106Z,12.81
2023-05-10T20:45:32.319Z,12.76
2023-05-10T20:48:27.514Z,12.69
2023-05-10T20:55:41.108Z,12.61
2023-05-10T20:58:11.433Z,12.57
2023-05-10T21:00:49.078Z,12.50
2023-05-10T21:15:05.550Z,12.33
2023-05-10T21:18:00.301Z,12.32
2023-05-10T21:20:27.573Z,12.34
2023-05-10T21:27:25.905Z,12.20
2023-05-10T21:29:55.152Z,12.17
2023-05-10T21:32:23.635Z,12.21
2023-05-10T21:39:42.578Z,12.25
2023-05-10T21:42:58.732Z,12.28
2023-05-10T21:49:16.703Z,12.31
2023-05-10T21:52:03.853Z,12.30
2023-05-10T21:54:32.147Z,12.29
2023-05-10T21:56:58.759Z,12.27
2023-05-10T21:59:26.299Z,12.32
2023-05-10T22:05:34.493Z,12.33
2023-05-10T22:08:02.856Z,12.30
2023-05-10T22:10:31.613Z,12.29
2023-05-10T22:13:01.460Z,12.30
2023-05-10T22:15:28.237Z,12.30
2023-05-10T22:17:56.212Z,12.30
2023-05-10T22:20:22.889Z,12.25
2023-05-10T22:22:50.017Z,12.24
2023-05-10T22:25:17.110Z,12.24
2023-05-10T22:27:43.725Z,12.23
2023-05-10T22:30:10.758Z,12.17
2023-05-10T22:32:38.705Z,12.17
2023-05-10T22:35:06.404Z,12.15
2023-05-10T22:37:33.935Z,12.12
2023-05-10T22:40:02.530Z,12.07
2023-05-10T22:47:03.001Z,11.93
2023-05-10T22:49:37.921Z,11.93
2023-05-10T22:52:04.663Z,11.91
2023-05-10T22:54:33.796Z,11.86
2023-05-10T22:57:02.230Z,11.81
2023-05-10T22:59:30.038Z,11.81
2023-05-10T23:02:00.400Z,11.77
2023-05-10T23:04:27.654Z,11.78
2023-05-10T23:06:56.492Z,11.76
2023-05-10T23:09:23.687Z,11.76
2023-05-10T23:11:51.030Z,11.78
2023-05-10T23:14:19.167Z,11.76
2023-05-10T23:16:46.676Z,11.72
2023-05-10T23:19:16.704Z,11.71
2023-05-10T23:22:04.484Z,11.69
2023-05-10T23:29:27.382Z,11.52
2023-05-10T23:36:54.765Z,11.36
2023-05-10T23:39:22.938Z,11.34
2023-05-10T23:42:13.128Z,11.31
2023-05-10T23:45:00.484Z,11.29
2023-05-10T23:47:27.636Z,11.27
2023-05-10T23:49:54.998Z,11.26
2023-05-10T23:52:43.128Z,11.27
2023-05-10T23:55:30.436Z,11.22
2023-05-10T23:57:59.007Z,11.20
